Bellingham, WA (98225)

11:12 AM PDT on September 01, 2015 (GMT -0700)
Columbia-Eldridge Marimba Palace | | Change Station
CLOSE
Current Station
Personal Weather Station
Location: Bellingham, WA
Elevation: 97 ft
Nearby Weather Stations

Elev 97 ft 48.76 °N, 122.50 °W | Updated 2 minutes ago

Overcast
Overcast
64.1 °F
Feels Like 64.1 °F
N
1.1
Wind Variable Wind from SSE
Gusts 1.1 mph

Today
High -- | Low -- °F
--% Chance of Precip.
Yesterday
High -- | Low -- °F
Precip. -- in
6:26 AM 7:52 PM
Waning Gibbous, 87% visible
Pressure 29.84 in
Visibility 10.0 miles
Clouds Few 300 ft
Overcast 4300 ft
Dew Point 59 °F
Humidity 83%
Rainfall 0.13 in
Snow Depth Not available.
UV 2 out of 12
Pollen .50 out of 12
Air Quality Not available.
Flu Activity Not available.
METAR KBLI 011753Z 16007KT 10SM FEW003 OVC043 17/13 A2982 RMK AO2 SLP104 60000 T01670128 10167 20144 58003 $
Pressure 29.84 in
Visibility 10.0 miles
Clouds Few 300 ft
Overcast 4300 ft
Dew Point 59 °F
Humidity 83%
Rainfall 0.13 in
Snow Depth Not available.
UV 2 out of 12
Pollen .50 out of 12
Air Quality Not available.
Flu Activity Not available.
METAR KBLI 011753Z 16007KT 10SM FEW003 OVC043 17/13 A2982 RMK AO2 SLP104 60000 T01670128 10167 20144 58003 $

10-Day Weather Forecast

×

Almanac

Astronomy

Sep. 01, 2015 Rise Set
Actual Time
Civil Twilight
Nautical Twilight
Astronomical Twilight
Moon
Length of Visible Light
Length of Day
Tomorrow will be .
, % of the Moon is Illuminated

Today's Extremes

State Highs State Lows

Community

WunderPhotos

Upload Photos

1,851,592 photos uploaded!

WunderBlogs® & News

Nearby

Air Quality

  Air Quality AQ Index Pollutant
Not available.

Snow Depth

Station Depth Elevation

Earthquake Activity

City Distance Mag. Time & Date
Minimum magnitude displayed is 2.5.

Coastal Water Temperatures

Place Temperature

Stations

Nearby Weather Stations

Station Location Temp. Windchill Dew Point Humidity Wind Precip. Elev Updated Type